sensor_id;sensor_type;location;lat;lon;timestamp;P1;durP1;ratioP1;P2;durP2;ratioP2
70558;SDS011;58108;48.094;11.838;2023-01-01T00:00:39;203.67;;;87.90;;
70558;SDS011;58108;48.094;11.838;2023-01-01T00:03:04;161.33;;;73.97;;
70558;SDS011;58108;48.094;11.838;2023-01-01T00:05:30;158.30;;;68.03;;
70558;SDS011;58108;48.094;11.838;2023-01-01T00:07:55;124.37;;;58.40;;
70558;SDS011;58108;48.094;11.838;2023-01-01T00:10:20;104.30;;;48.37;;
70558;SDS011;58108;48.094;11.838;2023-01-01T00:12:57;123.05;;;56.38;;
70558;SDS011;58108;48.094;11.838;2023-01-01T00:15:23;108.95;;;49.30;;
70558;SDS011;58108;48.094;11.838;2023-01-01T00:17:48;108.10;;;47.70;;
70558;SDS011;58108;48.094;11.838;2023-01-01T00:20:13;83.97;;;41.13;;
70558;SDS011;58108;48.094;11.838;2023-01-01T00:22:38;77.40;;;36.43;;
70558;SDS011;58108;48.094;11.838;2023-01-01T00:25:04;71.07;;;33.17;;
70558;SDS011;58108;48.094;11.838;2023-01-01T00:27:30;73.28;;;34.47;;
70558;SDS011;58108;48.094;11.838;2023-01-01T00:29:55;76.07;;;34.83;;
70558;SDS011;58108;48.094;11.838;2023-01-01T00:32:20;61.03;;;30.43;;
70558;SDS011;58108;48.094;11.838;2023-01-01T00:34:45;52.87;;;24.70;;
70558;SDS011;58108;48.094;11.838;2023-01-01T00:37:10;54.77;;;26.20;;
70558;SDS011;58108;48.094;11.838;2023-01-01T00:39:36;47.53;;;21.53;;
70558;SDS011;58108;48.094;11.838;2023-01-01T00:42:01;38.13;;;18.07;;
70558;SDS011;58108;48.094;11.838;2023-01-01T00:44:26;42.37;;;21.10;;
70558;SDS011;58108;48.094;11.838;2023-01-01T00:46:51;50.10;;;23.17;;
70558;SDS011;58108;48.094;11.838;2023-01-01T00:49:16;58.13;;;26.07;;
70558;SDS011;58108;48.094;11.838;2023-01-01T00:51:42;46.13;;;22.40;;
70558;SDS011;58108;48.094;11.838;2023-01-01T00:54:07;28.93;;;12.73;;
70558;SDS011;58108;48.094;11.838;2023-01-01T00:56:32;32.00;;;15.47;;
70558;SDS011;58108;48.094;11.838;2023-01-01T00:58:57;22.77;;;11.00;;
70558;SDS011;58108;48.094;11.838;2023-01-01T01:01:22;22.17;;;9.87;;
70558;SDS011;58108;48.094;11.838;2023-01-01T01:03:48;18.50;;;9.30;;
70558;SDS011;58108;48.094;11.838;2023-01-01T01:06:14;18.97;;;9.13;;
70558;SDS011;58108;48.094;11.838;2023-01-01T01:08:40;22.55;;;10.25;;
70558;SDS011;58108;48.094;11.838;2023-01-01T01:11:07;19.35;;;8.77;;
70558;SDS011;58108;48.094;11.838;2023-01-01T01:13:32;21.05;;;9.27;;
70558;SDS011;58108;48.094;11.838;2023-01-01T01:15:57;22.43;;;12.00;;
70558;SDS011;58108;48.094;11.838;2023-01-01T01:18:23;23.97;;;12.33;;
70558;SDS011;58108;48.094;11.838;2023-01-01T01:20:49;27.73;;;12.87;;
70558;SDS011;58108;48.094;11.838;2023-01-01T01:23:14;24.92;;;11.43;;
70558;SDS011;58108;48.094;11.838;2023-01-01T01:25:39;21.43;;;10.13;;
70558;SDS011;58108;48.094;11.838;2023-01-01T01:28:04;19.90;;;9.20;;
70558;SDS011;58108;48.094;11.838;2023-01-01T01:30:30;16.70;;;7.60;;
70558;SDS011;58108;48.094;11.838;2023-01-01T01:32:55;15.50;;;7.40;;
70558;SDS011;58108;48.094;11.838;2023-01-01T01:35:20;17.03;;;7.83;;
70558;SDS011;58108;48.094;11.838;2023-01-01T01:37:45;17.77;;;7.57;;
70558;SDS011;58108;48.094;11.838;2023-01-01T01:40:11;18.93;;;8.60;;
70558;SDS011;58108;48.094;11.838;2023-01-01T01:42:39;18.70;;;8.82;;
70558;SDS011;58108;48.094;11.838;2023-01-01T01:45:05;20.03;;;9.40;;
70558;SDS011;58108;48.094;11.838;2023-01-01T01:47:34;17.55;;;8.88;;
70558;SDS011;58108;48.094;11.838;2023-01-01T01:50:08;16.63;;;8.03;;
70558;SDS011;58108;48.094;11.838;2023-01-01T01:52:36;18.83;;;7.85;;
70558;SDS011;58108;48.094;11.838;2023-01-01T01:55:03;17.02;;;7.68;;
70558;SDS011;58108;48.094;11.838;2023-01-01T01:57:29;16.42;;;7.38;;
70558;SDS011;58108;48.094;11.838;2023-01-01T01:59:55;18.13;;;8.27;;
70558;SDS011;58108;48.094;11.838;2023-01-01T02:02:22;15.70;;;7.13;;
70558;SDS011;58108;48.094;11.838;2023-01-01T02:04:51;16.55;;;7.22;;
70558;SDS011;58108;48.094;11.838;2023-01-01T02:07:16;16.00;;;7.50;;
70558;SDS011;58108;48.094;11.838;2023-01-01T02:09:42;17.05;;;7.53;;
70558;SDS011;58108;48.094;11.838;2023-01-01T02:12:07;14.63;;;6.90;;
70558;SDS011;58108;48.094;11.838;2023-01-01T02:14:32;19.27;;;7.93;;
70558;SDS011;58108;48.094;11.838;2023-01-01T02:17:08;14.87;;;7.20;;
70558;SDS011;58108;48.094;11.838;2023-01-01T02:19:47;15.75;;;6.80;;
70558;SDS011;58108;48.094;11.838;2023-01-01T02:29:52;13.90;;;6.15;;
70558;SDS011;58108;48.094;11.838;2023-01-01T02:32:23;16.17;;;6.22;;
70558;SDS011;58108;48.094;11.838;2023-01-01T02:34:56;16.07;;;6.37;;
70558;SDS011;58108;48.094;11.838;2023-01-01T02:37:21;16.05;;;6.13;;
70558;SDS011;58108;48.094;11.838;2023-01-01T02:39:52;14.73;;;5.97;;
70558;SDS011;58108;48.094;11.838;2023-01-01T02:42:18;16.13;;;7.10;;
70558;SDS011;58108;48.094;11.838;2023-01-01T02:44:45;14.10;;;6.63;;
70558;SDS011;58108;48.094;11.838;2023-01-01T02:47:15;13.20;;;6.30;;
70558;SDS011;58108;48.094;11.838;2023-01-01T02:50:16;14.18;;;6.20;;
70558;SDS011;58108;48.094;11.838;2023-01-01T02:52:54;12.75;;;5.30;;
70558;SDS011;58108;48.094;11.838;2023-01-01T02:57:50;11.27;;;5.40;;
70558;SDS011;58108;48.094;11.838;2023-01-01T03:00:17;13.68;;;5.60;;
70558;SDS011;58108;48.094;11.838;2023-01-01T03:05:30;12.52;;;5.40;;
70558;SDS011;58108;48.094;11.838;2023-01-01T03:10:27;12.25;;;5.38;;
70558;SDS011;58108;48.094;11.838;2023-01-01T03:15:27;13.18;;;5.25;;
70558;SDS011;58108;48.094;11.838;2023-01-01T03:18:07;10.13;;;4.50;;
70558;SDS011;58108;48.094;11.838;2023-01-01T03:20:33;10.68;;;4.55;;
70558;SDS011;58108;48.094;11.838;2023-01-01T03:23:05;10.45;;;4.85;;
70558;SDS011;58108;48.094;11.838;2023-01-01T03:25:32;9.47;;;3.80;;
70558;SDS011;58108;48.094;11.838;2023-01-01T03:27:59;9.20;;;3.63;;
70558;SDS011;58108;48.094;11.838;2023-01-01T03:30:26;9.88;;;4.50;;
70558;SDS011;58108;48.094;11.838;2023-01-01T03:32:55;8.70;;;3.78;;
70558;SDS011;58108;48.094;11.838;2023-01-01T03:35:35;9.55;;;4.07;;
70558;SDS011;58108;48.094;11.838;2023-01-01T03:38:03;8.53;;;3.27;;
70558;SDS011;58108;48.094;11.838;2023-01-01T03:40:29;8.70;;;3.88;;
70558;SDS011;58108;48.094;11.838;2023-01-01T03:42:58;10.07;;;4.35;;
70558;SDS011;58108;48.094;11.838;2023-01-01T03:45:26;11.20;;;4.75;;
70558;SDS011;58108;48.094;11.838;2023-01-01T03:47:54;9.00;;;4.00;;
70558;SDS011;58108;48.094;11.838;2023-01-01T03:50:20;8.85;;;3.70;;
70558;SDS011;58108;48.094;11.838;2023-01-01T03:52:49;8.43;;;3.63;;
70558;SDS011;58108;48.094;11.838;2023-01-01T03:55:17;9.47;;;3.50;;
70558;SDS011;58108;48.094;11.838;2023-01-01T03:57:47;8.80;;;3.83;;
70558;SDS011;58108;48.094;11.838;2023-01-01T04:00:16;8.95;;;3.25;;
70558;SDS011;58108;48.094;11.838;2023-01-01T04:02:48;7.63;;;3.42;;
70558;SDS011;58108;48.094;11.838;2023-01-01T04:05:14;8.73;;;3.35;;
70558;SDS011;58108;48.094;11.838;2023-01-01T04:07:39;7.73;;;3.20;;
70558;SDS011;58108;48.094;11.838;2023-01-01T04:10:05;9.02;;;4.03;;
70558;SDS011;58108;48.094;11.838;2023-01-01T04:12:50;6.47;;;2.80;;
70558;SDS011;58108;48.094;11.838;2023-01-01T04:15:16;7.82;;;3.40;;
70558;SDS011;58108;48.094;11.838;2023-01-01T04:17:42;8.75;;;3.30;;
70558;SDS011;58108;48.094;11.838;2023-01-01T04:20:07;7.97;;;3.50;;
70558;SDS011;58108;48.094;11.838;2023-01-01T04:22:33;8.95;;;3.72;;
70558;SDS011;58108;48.094;11.838;2023-01-01T04:24:58;7.90;;;3.50;;
70558;SDS011;58108;48.094;11.838;2023-01-01T04:27:23;8.13;;;3.10;;
70558;SDS011;58108;48.094;11.838;2023-01-01T04:29:48;7.37;;;3.00;;
70558;SDS011;58108;48.094;11.838;2023-01-01T04:32:13;9.03;;;3.60;;
70558;SDS011;58108;48.094;11.838;2023-01-01T04:34:39;10.63;;;3.50;;
70558;SDS011;58108;48.094;11.838;2023-01-01T04:37:04;8.90;;;3.33;;
70558;SDS011;58108;48.094;11.838;2023-01-01T04:39:29;11.87;;;4.10;;
70558;SDS011;58108;48.094;11.838;2023-01-01T04:41:54;9.90;;;3.97;;
70558;SDS011;58108;48.094;11.838;2023-01-01T04:44:19;9.40;;;4.10;;
70558;SDS011;58108;48.094;11.838;2023-01-01T04:46:44;10.27;;;4.28;;
70558;SDS011;58108;48.094;11.838;2023-01-01T04:49:10;11.85;;;3.97;;
70558;SDS011;58108;48.094;11.838;2023-01-01T04:51:35;11.63;;;4.37;;
70558;SDS011;58108;48.094;11.838;2023-01-01T04:54:00;10.70;;;3.90;;
70558;SDS011;58108;48.094;11.838;2023-01-01T04:56:26;12.20;;;4.22;;
70558;SDS011;58108;48.094;11.838;2023-01-01T04:58:51;11.73;;;4.27;;
70558;SDS011;58108;48.094;11.838;2023-01-01T05:01:18;10.93;;;4.73;;
70558;SDS011;58108;48.094;11.838;2023-01-01T05:03:43;11.13;;;4.47;;
70558;SDS011;58108;48.094;11.838;2023-01-01T05:06:09;11.47;;;4.60;;
70558;SDS011;58108;48.094;11.838;2023-01-01T05:08:35;11.70;;;4.63;;
70558;SDS011;58108;48.094;11.838;2023-01-01T05:11:02;10.02;;;4.47;;
70558;SDS011;58108;48.094;11.838;2023-01-01T05:13:27;13.20;;;5.63;;
70558;SDS011;58108;48.094;11.838;2023-01-01T05:15:53;12.50;;;5.80;;
70558;SDS011;58108;48.094;11.838;2023-01-01T05:18:18;15.37;;;5.43;;
70558;SDS011;58108;48.094;11.838;2023-01-01T05:20:43;13.20;;;5.20;;
70558;SDS011;58108;48.094;11.838;2023-01-01T05:23:08;12.73;;;4.83;;
70558;SDS011;58108;48.094;11.838;2023-01-01T05:25:33;11.83;;;4.57;;
70558;SDS011;58108;48.094;11.838;2023-01-01T05:27:58;13.33;;;5.40;;
70558;SDS011;58108;48.094;11.838;2023-01-01T05:30:23;13.77;;;5.60;;
70558;SDS011;58108;48.094;11.838;2023-01-01T05:32:49;14.40;;;5.13;;
70558;SDS011;58108;48.094;11.838;2023-01-01T05:35:14;13.13;;;5.50;;
70558;SDS011;58108;48.094;11.838;2023-01-01T05:37:39;13.02;;;5.75;;
70558;SDS011;58108;48.094;11.838;2023-01-01T05:40:04;13.30;;;5.33;;
70558;SDS011;58108;48.094;11.838;2023-01-01T05:42:30;11.77;;;4.53;;
70558;SDS011;58108;48.094;11.838;2023-01-01T05:44:55;12.77;;;5.37;;
70558;SDS011;58108;48.094;11.838;2023-01-01T05:47:20;11.83;;;4.90;;
70558;SDS011;58108;48.094;11.838;2023-01-01T05:49:46;10.77;;;4.43;;
70558;SDS011;58108;48.094;11.838;2023-01-01T05:52:11;11.10;;;4.43;;
70558;SDS011;58108;48.094;11.838;2023-01-01T05:54:36;11.17;;;4.50;;
70558;SDS011;58108;48.094;11.838;2023-01-01T05:57:01;13.93;;;5.30;;
70558;SDS011;58108;48.094;11.838;2023-01-01T05:59:27;12.17;;;4.87;;
70558;SDS011;58108;48.094;11.838;2023-01-01T06:01:52;14.67;;;5.60;;
70558;SDS011;58108;48.094;11.838;2023-01-01T06:04:17;12.63;;;5.20;;
70558;SDS011;58108;48.094;11.838;2023-01-01T06:06:42;12.13;;;5.43;;
70558;SDS011;58108;48.094;11.838;2023-01-01T06:09:08;13.00;;;5.20;;
70558;SDS011;58108;48.094;11.838;2023-01-01T06:11:33;12.80;;;4.80;;
70558;SDS011;58108;48.094;11.838;2023-01-01T06:13:59;11.80;;;4.70;;
70558;SDS011;58108;48.094;11.838;2023-01-01T06:16:25;11.53;;;4.63;;
70558;SDS011;58108;48.094;11.838;2023-01-01T06:18:50;12.70;;;5.22;;
70558;SDS011;58108;48.094;11.838;2023-01-01T06:21:17;12.83;;;5.20;;
70558;SDS011;58108;48.094;11.838;2023-01-01T06:23:42;12.90;;;5.28;;
70558;SDS011;58108;48.094;11.838;2023-01-01T06:26:11;11.03;;;4.70;;
70558;SDS011;58108;48.094;11.838;2023-01-01T06:28:37;11.55;;;4.30;;
70558;SDS011;58108;48.094;11.838;2023-01-01T06:31:03;12.57;;;5.00;;
70558;SDS011;58108;48.094;11.838;2023-01-01T06:33:29;12.43;;;4.70;;
70558;SDS011;58108;48.094;11.838;2023-01-01T06:35:54;12.20;;;4.90;;
70558;SDS011;58108;48.094;11.838;2023-01-01T06:38:20;11.27;;;4.60;;
70558;SDS011;58108;48.094;11.838;2023-01-01T06:40:54;11.83;;;4.53;;
70558;SDS011;58108;48.094;11.838;2023-01-01T06:43:19;10.25;;;4.53;;
70558;SDS011;58108;48.094;11.838;2023-01-01T06:45:44;11.70;;;4.57;;
70558;SDS011;58108;48.094;11.838;2023-01-01T06:48:09;11.77;;;4.70;;
70558;SDS011;58108;48.094;11.838;2023-01-01T06:50:34;10.87;;;4.40;;
70558;SDS011;58108;48.094;11.838;2023-01-01T06:53:00;10.60;;;4.13;;
70558;SDS011;58108;48.094;11.838;2023-01-01T06:55:25;10.63;;;4.50;;
70558;SDS011;58108;48.094;11.838;2023-01-01T06:57:50;9.53;;;3.20;;
70558;SDS011;58108;48.094;11.838;2023-01-01T07:00:15;12.00;;;4.37;;
70558;SDS011;58108;48.094;11.838;2023-01-01T07:02:41;12.17;;;3.50;;
70558;SDS011;58108;48.094;11.838;2023-01-01T07:05:06;8.57;;;3.20;;
70558;SDS011;58108;48.094;11.838;2023-01-01T07:07:31;9.20;;;3.87;;
70558;SDS011;58108;48.094;11.838;2023-01-01T07:09:57;11.50;;;4.00;;
70558;SDS011;58108;48.094;11.838;2023-01-01T07:12:22;9.43;;;3.63;;
70558;SDS011;58108;48.094;11.838;2023-01-01T07:14:47;9.60;;;3.83;;
70558;SDS011;58108;48.094;11.838;2023-01-01T07:17:12;10.97;;;4.77;;
70558;SDS011;58108;48.094;11.838;2023-01-01T07:19:37;11.93;;;4.63;;
70558;SDS011;58108;48.094;11.838;2023-01-01T07:22:02;9.87;;;4.43;;
70558;SDS011;58108;48.094;11.838;2023-01-01T07:24:28;11.50;;;4.60;;
70558;SDS011;58108;48.094;11.838;2023-01-01T07:26:53;12.60;;;4.70;;
70558;SDS011;58108;48.094;11.838;2023-01-01T07:29:18;11.77;;;4.60;;
70558;SDS011;58108;48.094;11.838;2023-01-01T07:31:43;10.07;;;4.20;;
70558;SDS011;58108;48.094;11.838;2023-01-01T07:34:11;12.63;;;4.20;;
70558;SDS011;58108;48.094;11.838;2023-01-01T07:36:37;9.18;;;3.60;;
70558;SDS011;58108;48.094;11.838;2023-01-01T07:39:02;9.97;;;4.23;;
70558;SDS011;58108;48.094;11.838;2023-01-01T07:41:27;14.27;;;5.30;;
70558;SDS011;58108;48.094;11.838;2023-01-01T07:43:52;11.50;;;4.70;;
70558;SDS011;58108;48.094;11.838;2023-01-01T07:46:17;11.80;;;4.30;;
70558;SDS011;58108;48.094;11.838;2023-01-01T07:48:43;12.77;;;4.47;;
70558;SDS011;58108;48.094;11.838;2023-01-01T07:51:08;11.27;;;3.77;;
70558;SDS011;58108;48.094;11.838;2023-01-01T07:53:33;5.63;;;1.77;;
70558;SDS011;58108;48.094;11.838;2023-01-01T07:55:58;9.90;;;3.53;;
70558;SDS011;58108;48.094;11.838;2023-01-01T07:58:24;10.93;;;3.40;;
70558;SDS011;58108;48.094;11.838;2023-01-01T08:00:49;9.17;;;3.20;;
70558;SDS011;58108;48.094;11.838;2023-01-01T08:03:14;9.63;;;3.70;;
70558;SDS011;58108;48.094;11.838;2023-01-01T08:05:40;8.63;;;3.15;;
70558;SDS011;58108;48.094;11.838;2023-01-01T08:08:05;8.57;;;3.50;;
70558;SDS011;58108;48.094;11.838;2023-01-01T08:10:30;8.70;;;3.17;;
70558;SDS011;58108;48.094;11.838;2023-01-01T08:13:02;10.13;;;3.90;;
70558;SDS011;58108;48.094;11.838;2023-01-01T08:15:27;8.40;;;3.50;;
70558;SDS011;58108;48.094;11.838;2023-01-01T08:17:59;9.02;;;3.15;;
70558;SDS011;58108;48.094;11.838;2023-01-01T08:20:25;8.57;;;3.20;;
70558;SDS011;58108;48.094;11.838;2023-01-01T08:22:51;9.00;;;3.30;;
70558;SDS011;58108;48.094;11.838;2023-01-01T08:25:16;10.23;;;4.27;;
70558;SDS011;58108;48.094;11.838;2023-01-01T08:27:41;10.13;;;3.80;;
70558;SDS011;58108;48.094;11.838;2023-01-01T08:30:06;9.47;;;3.90;;
70558;SDS011;58108;48.094;11.838;2023-01-01T08:32:32;9.13;;;3.47;;
70558;SDS011;58108;48.094;11.838;2023-01-01T08:34:57;9.40;;;3.20;;
70558;SDS011;58108;48.094;11.838;2023-01-01T08:37:22;7.60;;;3.00;;
70558;SDS011;58108;48.094;11.838;2023-01-01T08:39:49;7.60;;;2.77;;
70558;SDS011;58108;48.094;11.838;2023-01-01T08:42:14;7.43;;;2.45;;
70558;SDS011;58108;48.094;11.838;2023-01-01T08:44:39;7.33;;;2.73;;
70558;SDS011;58108;48.094;11.838;2023-01-01T08:47:04;7.80;;;3.20;;
70558;SDS011;58108;48.094;11.838;2023-01-01T08:49:29;6.57;;;2.80;;
70558;SDS011;58108;48.094;11.838;2023-01-01T08:51:56;7.30;;;2.92;;
70558;SDS011;58108;48.094;11.838;2023-01-01T08:54:21;8.97;;;2.97;;
70558;SDS011;58108;48.094;11.838;2023-01-01T08:56:46;7.50;;;2.73;;
70558;SDS011;58108;48.094;11.838;2023-01-01T08:59:11;7.50;;;2.77;;
70558;SDS011;58108;48.094;11.838;2023-01-01T09:01:36;7.80;;;2.80;;
70558;SDS011;58108;48.094;11.838;2023-01-01T09:04:02;7.73;;;2.80;;
70558;SDS011;58108;48.094;11.838;2023-01-01T09:06:27;6.37;;;2.50;;
70558;SDS011;58108;48.094;11.838;2023-01-01T09:08:52;6.30;;;2.27;;
70558;SDS011;58108;48.094;11.838;2023-01-01T09:11:25;5.83;;;2.10;;
70558;SDS011;58108;48.094;11.838;2023-01-01T09:13:51;6.50;;;2.30;;
70558;SDS011;58108;48.094;11.838;2023-01-01T09:16:16;6.50;;;2.43;;
70558;SDS011;58108;48.094;11.838;2023-01-01T09:18:42;5.73;;;1.80;;
70558;SDS011;58108;48.094;11.838;2023-01-01T09:21:07;4.53;;;1.70;;
70558;SDS011;58108;48.094;11.838;2023-01-01T09:23:32;5.03;;;1.37;;
70558;SDS011;58108;48.094;11.838;2023-01-01T09:26:01;4.43;;;1.10;;
70558;SDS011;58108;48.094;11.838;2023-01-01T09:28:26;3.63;;;1.17;;
70558;SDS011;58108;48.094;11.838;2023-01-01T09:30:53;3.25;;;1.20;;
70558;SDS011;58108;48.094;11.838;2023-01-01T09:33:18;4.10;;;1.27;;
70558;SDS011;58108;48.094;11.838;2023-01-01T09:35:43;3.47;;;1.10;;
70558;SDS011;58108;48.094;11.838;2023-01-01T09:38:09;3.93;;;1.17;;
70558;SDS011;58108;48.094;11.838;2023-01-01T09:46:05;4.10;;;1.20;;
70558;SDS011;58108;48.094;11.838;2023-01-01T09:48:31;3.07;;;0.90;;
70558;SDS011;58108;48.094;11.838;2023-01-01T09:50:56;3.05;;;1.20;;
70558;SDS011;58108;48.094;11.838;2023-01-01T09:56:08;3.73;;;0.97;;
70558;SDS011;58108;48.094;11.838;2023-01-01T09:58:37;3.95;;;1.20;;
70558;SDS011;58108;48.094;11.838;2023-01-01T10:01:05;2.40;;;0.67;;
70558;SDS011;58108;48.094;11.838;2023-01-01T10:03:47;3.20;;;0.60;;
70558;SDS011;58108;48.094;11.838;2023-01-01T10:06:23;2.78;;;0.60;;
70558;SDS011;58108;48.094;11.838;2023-01-01T10:14:20;2.42;;;0.50;;
70558;SDS011;58108;48.094;11.838;2023-01-01T10:16:48;2.42;;;0.60;;
70558;SDS011;58108;48.094;11.838;2023-01-01T10:21:39;3.42;;;1.00;;
70558;SDS011;58108;48.094;11.838;2023-01-01T10:26:55;2.67;;;0.60;;
70558;SDS011;58108;48.094;11.838;2023-01-01T10:29:23;3.00;;;0.70;;
70558;SDS011;58108;48.094;11.838;2023-01-01T10:31:51;2.47;;;0.40;;
70558;SDS011;58108;48.094;11.838;2023-01-01T10:34:25;1.65;;;0.30;;
70558;SDS011;58108;48.094;11.838;2023-01-01T10:36:53;2.55;;;0.70;;
70558;SDS011;58108;48.094;11.838;2023-01-01T10:39:18;2.10;;;0.50;;
70558;SDS011;58108;48.094;11.838;2023-01-01T10:41:44;2.57;;;0.50;;
70558;SDS011;58108;48.094;11.838;2023-01-01T10:44:10;2.28;;;0.30;;
70558;SDS011;58108;48.094;11.838;2023-01-01T10:46:36;2.90;;;0.50;;
70558;SDS011;58108;48.094;11.838;2023-01-01T10:49:08;2.13;;;0.50;;
70558;SDS011;58108;48.094;11.838;2023-01-01T10:51:36;2.03;;;0.40;;
70558;SDS011;58108;48.094;11.838;2023-01-01T10:54:01;3.35;;;0.50;;
70558;SDS011;58108;48.094;11.838;2023-01-01T10:56:37;2.17;;;0.40;;
70558;SDS011;58108;48.094;11.838;2023-01-01T10:59:03;2.25;;;0.47;;
70558;SDS011;58108;48.094;11.838;2023-01-01T11:01:29;1.87;;;0.40;;
70558;SDS011;58108;48.094;11.838;2023-01-01T11:08:54;1.77;;;0.50;;
70558;SDS011;58108;48.094;11.838;2023-01-01T11:11:31;2.60;;;0.60;;
70558;SDS011;58108;48.094;11.838;2023-01-01T11:13:58;2.53;;;1.00;;
70558;SDS011;58108;48.094;11.838;2023-01-01T11:16:24;2.38;;;0.60;;
70558;SDS011;58108;48.094;11.838;2023-01-01T11:18:49;2.03;;;0.70;;
70558;SDS011;58108;48.094;11.838;2023-01-01T11:21:19;2.45;;;0.70;;
70558;SDS011;58108;48.094;11.838;2023-01-01T11:23:44;1.83;;;0.70;;
70558;SDS011;58108;48.094;11.838;2023-01-01T11:28:38;3.17;;;0.68;;
70558;SDS011;58108;48.094;11.838;2023-01-01T11:31:14;2.17;;;1.00;;
70558;SDS011;58108;48.094;11.838;2023-01-01T11:33:47;4.07;;;1.40;;
70558;SDS011;58108;48.094;11.838;2023-01-01T11:36:23;3.28;;;1.27;;
70558;SDS011;58108;48.094;11.838;2023-01-01T11:38:50;3.30;;;1.20;;
70558;SDS011;58108;48.094;11.838;2023-01-01T11:41:15;4.05;;;1.30;;
70558;SDS011;58108;48.094;11.838;2023-01-01T11:43:44;3.40;;;1.43;;
70558;SDS011;58108;48.094;11.838;2023-01-01T11:46:11;4.30;;;1.52;;
70558;SDS011;58108;48.094;11.838;2023-01-01T11:48:40;3.25;;;1.40;;
70558;SDS011;58108;48.094;11.838;2023-01-01T11:51:07;3.28;;;1.67;;
70558;SDS011;58108;48.094;11.838;2023-01-01T11:53:33;3.27;;;1.27;;
70558;SDS011;58108;48.094;11.838;2023-01-01T11:56:02;3.00;;;1.60;;
70558;SDS011;58108;48.094;11.838;2023-01-01T12:01:11;3.63;;;1.73;;
70558;SDS011;58108;48.094;11.838;2023-01-01T12:06:18;3.27;;;1.87;;
70558;SDS011;58108;48.094;11.838;2023-01-01T12:08:56;3.95;;;2.25;;
70558;SDS011;58108;48.094;11.838;2023-01-01T12:13:59;4.65;;;2.45;;
70558;SDS011;58108;48.094;11.838;2023-01-01T12:18:59;5.17;;;2.57;;
70558;SDS011;58108;48.094;11.838;2023-01-01T12:21:26;5.03;;;2.40;;
70558;SDS011;58108;48.094;11.838;2023-01-01T12:23:56;4.07;;;2.72;;
70558;SDS011;58108;48.094;11.838;2023-01-01T12:37:19;5.17;;;3.07;;
70558;SDS011;58108;48.094;11.838;2023-01-01T12:42:18;5.20;;;3.47;;
70558;SDS011;58108;48.094;11.838;2023-01-01T13:00:29;4.70;;;2.70;;
70558;SDS011;58108;48.094;11.838;2023-01-01T13:03:00;5.32;;;2.78;;
70558;SDS011;58108;48.094;11.838;2023-01-01T13:05:41;4.10;;;2.50;;
70558;SDS011;58108;48.094;11.838;2023-01-01T13:08:10;4.43;;;3.00;;
70558;SDS011;58108;48.094;11.838;2023-01-01T13:10:39;4.28;;;2.30;;
70558;SDS011;58108;48.094;11.838;2023-01-01T13:13:06;4.00;;;2.40;;
70558;SDS011;58108;48.094;11.838;2023-01-01T13:18:04;3.47;;;1.90;;
70558;SDS011;58108;48.094;11.838;2023-01-01T13:20:30;3.40;;;2.03;;
70558;SDS011;58108;48.094;11.838;2023-01-01T13:22:55;3.33;;;1.80;;
70558;SDS011;58108;48.094;11.838;2023-01-01T13:25:21;3.43;;;1.93;;
70558;SDS011;58108;48.094;11.838;2023-01-01T13:43:50;3.15;;;1.30;;
70558;SDS011;58108;48.094;11.838;2023-01-01T13:46:16;2.83;;;1.30;;
70558;SDS011;58108;48.094;11.838;2023-01-01T13:48:53;2.90;;;1.33;;
70558;SDS011;58108;48.094;11.838;2023-01-01T13:51:38;3.13;;;1.30;;
70558;SDS011;58108;48.094;11.838;2023-01-01T13:56:56;2.30;;;1.20;;
70558;SDS011;58108;48.094;11.838;2023-01-01T14:02:07;2.00;;;0.90;;
70558;SDS011;58108;48.094;11.838;2023-01-01T14:04:38;4.03;;;1.30;;
70558;SDS011;58108;48.094;11.838;2023-01-01T14:07:15;2.75;;;1.25;;
70558;SDS011;58108;48.094;11.838;2023-01-01T14:09:42;2.67;;;1.08;;
70558;SDS011;58108;48.094;11.838;2023-01-01T14:12:14;2.90;;;1.20;;
70558;SDS011;58108;48.094;11.838;2023-01-01T14:14:40;2.88;;;1.00;;
70558;SDS011;58108;48.094;11.838;2023-01-01T14:17:05;2.90;;;1.20;;
70558;SDS011;58108;48.094;11.838;2023-01-01T14:19:31;3.17;;;1.40;;
70558;SDS011;58108;48.094;11.838;2023-01-01T14:21:56;3.40;;;1.17;;
70558;SDS011;58108;48.094;11.838;2023-01-01T14:24:22;3.33;;;1.37;;
70558;SDS011;58108;48.094;11.838;2023-01-01T14:26:47;3.17;;;1.10;;
70558;SDS011;58108;48.094;11.838;2023-01-01T14:31:44;3.03;;;1.17;;
70558;SDS011;58108;48.094;11.838;2023-01-01T14:34:22;3.08;;;1.30;;
70558;SDS011;58108;48.094;11.838;2023-01-01T14:36:49;3.33;;;1.50;;
70558;SDS011;58108;48.094;11.838;2023-01-01T14:39:28;3.20;;;1.30;;
70558;SDS011;58108;48.094;11.838;2023-01-01T14:41:54;3.85;;;1.10;;
70558;SDS011;58108;48.094;11.838;2023-01-01T14:44:22;3.13;;;1.20;;
70558;SDS011;58108;48.094;11.838;2023-01-01T14:46:49;3.00;;;1.17;;
70558;SDS011;58108;48.094;11.838;2023-01-01T14:49:36;3.15;;;1.20;;
70558;SDS011;58108;48.094;11.838;2023-01-01T14:52:02;4.83;;;1.30;;
70558;SDS011;58108;48.094;11.838;2023-01-01T14:54:32;3.95;;;1.23;;
70558;SDS011;58108;48.094;11.838;2023-01-01T14:56:58;3.83;;;1.60;;
70558;SDS011;58108;48.094;11.838;2023-01-01T14:59:27;4.70;;;1.58;;
70558;SDS011;58108;48.094;11.838;2023-01-01T15:04:24;3.60;;;1.40;;
70558;SDS011;58108;48.094;11.838;2023-01-01T15:06:53;3.63;;;1.40;;
70558;SDS011;58108;48.094;11.838;2023-01-01T15:09:19;4.20;;;1.70;;
70558;SDS011;58108;48.094;11.838;2023-01-01T15:11:44;4.23;;;1.80;;
70558;SDS011;58108;48.094;11.838;2023-01-01T15:19:32;4.03;;;1.73;;
70558;SDS011;58108;48.094;11.838;2023-01-01T15:21:59;4.53;;;1.48;;
70558;SDS011;58108;48.094;11.838;2023-01-01T15:24:24;4.23;;;1.77;;
70558;SDS011;58108;48.094;11.838;2023-01-01T15:26:53;3.30;;;1.48;;
70558;SDS011;58108;48.094;11.838;2023-01-01T15:29:28;5.07;;;1.58;;
70558;SDS011;58108;48.094;11.838;2023-01-01T15:31:58;4.40;;;1.50;;
70558;SDS011;58108;48.094;11.838;2023-01-01T15:34:25;4.40;;;1.40;;
70558;SDS011;58108;48.094;11.838;2023-01-01T15:36:52;3.47;;;1.30;;
70558;SDS011;58108;48.094;11.838;2023-01-01T15:39:17;4.70;;;1.30;;
70558;SDS011;58108;48.094;11.838;2023-01-01T15:41:44;5.83;;;1.47;;
70558;SDS011;58108;48.094;11.838;2023-01-01T15:46:48;4.80;;;1.10;;
70558;SDS011;58108;48.094;11.838;2023-01-01T15:49:28;3.33;;;1.20;;
70558;SDS011;58108;48.094;11.838;2023-01-01T15:51:57;4.22;;;1.33;;
70558;SDS011;58108;48.094;11.838;2023-01-01T15:54:24;3.97;;;1.45;;
70558;SDS011;58108;48.094;11.838;2023-01-01T15:56:49;3.90;;;1.30;;
70558;SDS011;58108;48.094;11.838;2023-01-01T15:59:28;7.47;;;1.80;;
70558;SDS011;58108;48.094;11.838;2023-01-01T16:02:28;5.57;;;1.60;;
70558;SDS011;58108;48.094;11.838;2023-01-01T16:04:47;6.32;;;2.83;;
70558;SDS011;58108;48.094;11.838;2023-01-01T16:07:18;10.18;;;3.17;;
70558;SDS011;58108;48.094;11.838;2023-01-01T16:09:45;9.07;;;4.35;;
70558;SDS011;58108;48.094;11.838;2023-01-01T16:12:10;9.30;;;4.38;;
70558;SDS011;58108;48.094;11.838;2023-01-01T16:14:35;9.50;;;4.23;;
70558;SDS011;58108;48.094;11.838;2023-01-01T16:17:00;8.20;;;4.07;;
70558;SDS011;58108;48.094;11.838;2023-01-01T16:19:26;9.07;;;3.67;;
70558;SDS011;58108;48.094;11.838;2023-01-01T16:21:51;7.13;;;3.50;;
70558;SDS011;58108;48.094;11.838;2023-01-01T16:24:16;7.13;;;2.87;;
70558;SDS011;58108;48.094;11.838;2023-01-01T16:26:42;6.27;;;2.50;;
70558;SDS011;58108;48.094;11.838;2023-01-01T16:29:07;10.23;;;4.37;;